sensor_id;sensor_type;location;lat;lon;timestamp;temperature;humidity
15160;DHT22;7680;48.800;9.680;2023-10-19T00:04:16;10.50;99.90
15160;DHT22;7680;48.800;9.680;2023-10-19T00:09:21;10.50;99.90
15160;DHT22;7680;48.800;9.680;2023-10-19T00:14:25;10.60;99.90
15160;DHT22;7680;48.800;9.680;2023-10-19T00:19:29;10.60;99.90
15160;DHT22;7680;48.800;9.680;2023-10-19T00:24:32;10.60;99.90
15160;DHT22;7680;48.800;9.680;2023-10-19T00:29:37;10.50;99.90
15160;DHT22;7680;48.800;9.680;2023-10-19T00:34:42;10.50;99.90
15160;DHT22;7680;48.800;9.680;2023-10-19T00:39:53;10.50;99.90
15160;DHT22;7680;48.800;9.680;2023-10-19T00:44:59;10.60;99.90
15160;DHT22;7680;48.800;9.680;2023-10-19T00:50:07;10.50;99.90
15160;DHT22;7680;48.800;9.680;2023-10-19T00:55:18;10.50;99.90
15160;DHT22;7680;48.800;9.680;2023-10-19T01:00:24;10.50;99.90
15160;DHT22;7680;48.800;9.680;2023-10-19T01:05:33;10.50;99.90
15160;DHT22;7680;48.800;9.680;2023-10-19T01:10:38;10.60;99.90
15160;DHT22;7680;48.800;9.680;2023-10-19T01:15:43;10.50;99.90
15160;DHT22;7680;48.800;9.680;2023-10-19T01:20:51;10.50;99.90
15160;DHT22;7680;48.800;9.680;2023-10-19T01:25:59;10.40;99.90
15160;DHT22;7680;48.800;9.680;2023-10-19T01:31:04;10.40;99.90
15160;DHT22;7680;48.800;9.680;2023-10-19T01:36:10;10.50;99.90
15160;DHT22;7680;48.800;9.680;2023-10-19T01:41:15;10.50;99.90
15160;DHT22;7680;48.800;9.680;2023-10-19T01:46:21;10.50;99.90
15160;DHT22;7680;48.800;9.680;2023-10-19T01:51:27;10.60;99.90
15160;DHT22;7680;48.800;9.680;2023-10-19T01:56:33;10.60;99.90
15160;DHT22;7680;48.800;9.680;2023-10-19T02:01:37;10.60;99.90
15160;DHT22;7680;48.800;9.680;2023-10-19T02:06:44;10.50;99.90
15160;DHT22;7680;48.800;9.680;2023-10-19T02:11:52;10.60;99.90
15160;DHT22;7680;48.800;9.680;2023-10-19T02:16:59;10.70;99.90
15160;DHT22;7680;48.800;9.680;2023-10-19T02:22:05;10.70;99.90
15160;DHT22;7680;48.800;9.680;2023-10-19T02:27:12;10.50;99.90
15160;DHT22;7680;48.800;9.680;2023-10-19T02:32:31;10.40;99.90
15160;DHT22;7680;48.800;9.680;2023-10-19T02:37:35;10.50;99.90
15160;DHT22;7680;48.800;9.680;2023-10-19T02:42:41;10.50;99.90
15160;DHT22;7680;48.800;9.680;2023-10-19T02:47:48;10.50;99.90
15160;DHT22;7680;48.800;9.680;2023-10-19T02:52:52;10.50;99.90
15160;DHT22;7680;48.800;9.680;2023-10-19T02:57:57;10.60;99.90
15160;DHT22;7680;48.800;9.680;2023-10-19T03:03:00;10.70;99.90
15160;DHT22;7680;48.800;9.680;2023-10-19T03:08:07;10.60;99.90
15160;DHT22;7680;48.800;9.680;2023-10-19T03:13:12;10.60;99.90
15160;DHT22;7680;48.800;9.680;2023-10-19T03:18:16;10.60;99.90
15160;DHT22;7680;48.800;9.680;2023-10-19T03:23:20;10.70;99.90
15160;DHT22;7680;48.800;9.680;2023-10-19T03:28:25;10.60;99.90
15160;DHT22;7680;48.800;9.680;2023-10-19T03:33:28;10.60;99.90
15160;DHT22;7680;48.800;9.680;2023-10-19T03:38:32;10.50;99.90
15160;DHT22;7680;48.800;9.680;2023-10-19T03:43:40;10.50;99.90
15160;DHT22;7680;48.800;9.680;2023-10-19T03:48:43;10.40;99.90
15160;DHT22;7680;48.800;9.680;2023-10-19T03:53:48;10.40;99.90
15160;DHT22;7680;48.800;9.680;2023-10-19T03:58:57;10.30;99.90
15160;DHT22;7680;48.800;9.680;2023-10-19T04:04:01;10.30;99.90
15160;DHT22;7680;48.800;9.680;2023-10-19T04:09:07;10.20;99.90
15160;DHT22;7680;48.800;9.680;2023-10-19T04:14:13;10.20;99.90
15160;DHT22;7680;48.800;9.680;2023-10-19T04:19:16;10.20;99.90
15160;DHT22;7680;48.800;9.680;2023-10-19T04:24:20;10.20;99.90
15160;DHT22;7680;48.800;9.680;2023-10-19T04:29:25;10.10;99.90
15160;DHT22;7680;48.800;9.680;2023-10-19T04:34:29;10.00;99.90
15160;DHT22;7680;48.800;9.680;2023-10-19T04:39:33;9.90;99.90
15160;DHT22;7680;48.800;9.680;2023-10-19T04:44:39;9.90;99.90
15160;DHT22;7680;48.800;9.680;2023-10-19T04:49:42;9.90;99.90
15160;DHT22;7680;48.800;9.680;2023-10-19T04:54:45;9.90;99.90
15160;DHT22;7680;48.800;9.680;2023-10-19T04:59:50;9.80;99.90
15160;DHT22;7680;48.800;9.680;2023-10-19T05:04:53;9.80;99.90
15160;DHT22;7680;48.800;9.680;2023-10-19T05:09:56;9.70;99.90
15160;DHT22;7680;48.800;9.680;2023-10-19T05:15:03;9.70;99.90
15160;DHT22;7680;48.800;9.680;2023-10-19T05:20:08;9.70;99.90
15160;DHT22;7680;48.800;9.680;2023-10-19T05:25:12;9.60;99.90
15160;DHT22;7680;48.800;9.680;2023-10-19T05:30:17;9.60;99.90
15160;DHT22;7680;48.800;9.680;2023-10-19T05:35:20;9.60;99.90
15160;DHT22;7680;48.800;9.680;2023-10-19T05:40:28;9.50;99.90
15160;DHT22;7680;48.800;9.680;2023-10-19T05:45:33;9.50;99.90
15160;DHT22;7680;48.800;9.680;2023-10-19T05:50:41;9.50;99.90
15160;DHT22;7680;48.800;9.680;2023-10-19T05:55:45;9.50;99.90
15160;DHT22;7680;48.800;9.680;2023-10-19T06:00:49;9.50;99.90
15160;DHT22;7680;48.800;9.680;2023-10-19T06:05:53;9.60;99.90
15160;DHT22;7680;48.800;9.680;2023-10-19T06:10:58;9.60;99.90
15160;DHT22;7680;48.800;9.680;2023-10-19T06:16:03;9.70;99.90
15160;DHT22;7680;48.800;9.680;2023-10-19T06:21:06;9.70;99.90
15160;DHT22;7680;48.800;9.680;2023-10-19T06:26:10;9.70;99.90
15160;DHT22;7680;48.800;9.680;2023-10-19T06:31:15;9.70;99.90
15160;DHT22;7680;48.800;9.680;2023-10-19T06:36:18;9.80;99.90
15160;DHT22;7680;48.800;9.680;2023-10-19T06:41:21;9.90;99.90
15160;DHT22;7680;48.800;9.680;2023-10-19T06:46:27;10.00;99.90
15160;DHT22;7680;48.800;9.680;2023-10-19T06:51:30;10.10;99.90
15160;DHT22;7680;48.800;9.680;2023-10-19T06:56:34;10.10;99.90
15160;DHT22;7680;48.800;9.680;2023-10-19T07:01:40;10.10;99.90
15160;DHT22;7680;48.800;9.680;2023-10-19T07:06:43;10.10;99.90
15160;DHT22;7680;48.800;9.680;2023-10-19T07:11:49;10.20;99.90
15160;DHT22;7680;48.800;9.680;2023-10-19T07:16:56;10.20;99.90
15160;DHT22;7680;48.800;9.680;2023-10-19T07:21:59;10.40;99.90
15160;DHT22;7680;48.800;9.680;2023-10-19T07:27:05;10.60;99.90
15160;DHT22;7680;48.800;9.680;2023-10-19T07:32:18;10.80;99.90
15160;DHT22;7680;48.800;9.680;2023-10-19T07:37:21;10.80;99.90
15160;DHT22;7680;48.800;9.680;2023-10-19T07:42:24;10.80;99.90
15160;DHT22;7680;48.800;9.680;2023-10-19T07:47:29;10.80;99.90
15160;DHT22;7680;48.800;9.680;2023-10-19T07:52:34;10.90;99.90
15160;DHT22;7680;48.800;9.680;2023-10-19T07:57:37;10.90;99.90
15160;DHT22;7680;48.800;9.680;2023-10-19T08:02:43;10.80;99.90
15160;DHT22;7680;48.800;9.680;2023-10-19T08:07:47;10.70;99.90
15160;DHT22;7680;48.800;9.680;2023-10-19T08:12:51;10.90;99.90
15160;DHT22;7680;48.800;9.680;2023-10-19T08:17:56;11.10;99.90
15160;DHT22;7680;48.800;9.680;2023-10-19T08:23:00;11.20;99.90
15160;DHT22;7680;48.800;9.680;2023-10-19T08:28:05;11.40;99.90
15160;DHT22;7680;48.800;9.680;2023-10-19T08:33:09;11.50;99.90
15160;DHT22;7680;48.800;9.680;2023-10-19T08:38:15;11.70;99.90
15160;DHT22;7680;48.800;9.680;2023-10-19T08:43:19;11.90;99.90
15160;DHT22;7680;48.800;9.680;2023-10-19T08:48:24;11.90;99.90
15160;DHT22;7680;48.800;9.680;2023-10-19T08:53:28;11.90;99.90
15160;DHT22;7680;48.800;9.680;2023-10-19T08:58:32;12.20;99.90
15160;DHT22;7680;48.800;9.680;2023-10-19T09:03:36;12.30;99.90
15160;DHT22;7680;48.800;9.680;2023-10-19T09:08:40;12.50;99.90
15160;DHT22;7680;48.800;9.680;2023-10-19T09:13:45;12.90;99.90
15160;DHT22;7680;48.800;9.680;2023-10-19T09:18:51;13.10;99.90
15160;DHT22;7680;48.800;9.680;2023-10-19T09:23:55;13.10;99.90
15160;DHT22;7680;48.800;9.680;2023-10-19T09:28:59;13.20;99.90
15160;DHT22;7680;48.800;9.680;2023-10-19T09:34:04;13.50;99.90
15160;DHT22;7680;48.800;9.680;2023-10-19T09:39:13;13.40;99.90
15160;DHT22;7680;48.800;9.680;2023-10-19T09:44:21;13.60;99.90
15160;DHT22;7680;48.800;9.680;2023-10-19T09:49:28;13.80;99.90
15160;DHT22;7680;48.800;9.680;2023-10-19T09:54:41;13.70;99.90
15160;DHT22;7680;48.800;9.680;2023-10-19T09:59:55;14.00;99.90
15160;DHT22;7680;48.800;9.680;2023-10-19T10:05:02;14.00;99.90
15160;DHT22;7680;48.800;9.680;2023-10-19T10:10:06;14.10;99.90
15160;DHT22;7680;48.800;9.680;2023-10-19T10:15:10;14.20;99.90
15160;DHT22;7680;48.800;9.680;2023-10-19T10:20:32;14.20;99.90
15160;DHT22;7680;48.800;9.680;2023-10-19T10:25:38;14.30;99.90
15160;DHT22;7680;48.800;9.680;2023-10-19T10:31:12;14.50;99.90
15160;DHT22;7680;48.800;9.680;2023-10-19T10:36:19;14.60;99.90
15160;DHT22;7680;48.800;9.680;2023-10-19T10:41:24;14.50;99.90
15160;DHT22;7680;48.800;9.680;2023-10-19T10:46:30;14.40;99.90
15160;DHT22;7680;48.800;9.680;2023-10-19T10:51:35;14.40;99.90
15160;DHT22;7680;48.800;9.680;2023-10-19T10:56:40;14.50;99.90
15160;DHT22;7680;48.800;9.680;2023-10-19T11:01:44;14.60;99.90
15160;DHT22;7680;48.800;9.680;2023-10-19T11:06:52;14.70;99.90
15160;DHT22;7680;48.800;9.680;2023-10-19T11:11:57;14.80;99.90
15160;DHT22;7680;48.800;9.680;2023-10-19T11:17:13;15.00;99.90
15160;DHT22;7680;48.800;9.680;2023-10-19T11:22:18;15.20;99.90
15160;DHT22;7680;48.800;9.680;2023-10-19T11:27:23;15.20;99.90
15160;DHT22;7680;48.800;9.680;2023-10-19T11:32:36;15.30;99.90
15160;DHT22;7680;48.800;9.680;2023-10-19T11:37:47;15.40;99.90
15160;DHT22;7680;48.800;9.680;2023-10-19T11:42:51;15.30;99.90
15160;DHT22;7680;48.800;9.680;2023-10-19T11:47:54;15.30;99.90
15160;DHT22;7680;48.800;9.680;2023-10-19T11:53:00;15.20;99.90
15160;DHT22;7680;48.800;9.680;2023-10-19T11:58:03;15.20;99.90
15160;DHT22;7680;48.800;9.680;2023-10-19T12:03:07;15.20;99.90
15160;DHT22;7680;48.800;9.680;2023-10-19T12:08:11;15.10;99.90
15160;DHT22;7680;48.800;9.680;2023-10-19T12:19:56;15.10;99.90
15160;DHT22;7680;48.800;9.680;2023-10-19T12:25:02;15.10;99.90
15160;DHT22;7680;48.800;9.680;2023-10-19T12:30:07;15.10;99.90
15160;DHT22;7680;48.800;9.680;2023-10-19T12:35:21;15.10;99.90
15160;DHT22;7680;48.800;9.680;2023-10-19T12:40:33;15.10;99.90
15160;DHT22;7680;48.800;9.680;2023-10-19T12:45:37;15.10;99.90
15160;DHT22;7680;48.800;9.680;2023-10-19T12:50:40;15.10;99.90
15160;DHT22;7680;48.800;9.680;2023-10-19T12:55:45;15.10;99.90
15160;DHT22;7680;48.800;9.680;2023-10-19T13:00:48;15.20;99.90
15160;DHT22;7680;48.800;9.680;2023-10-19T13:05:51;15.10;99.90
15160;DHT22;7680;48.800;9.680;2023-10-19T13:10:56;15.10;99.90
15160;DHT22;7680;48.800;9.680;2023-10-19T13:16:13;15.20;99.90
15160;DHT22;7680;48.800;9.680;2023-10-19T13:21:17;15.20;99.90
15160;DHT22;7680;48.800;9.680;2023-10-19T13:26:25;15.10;99.90
15160;DHT22;7680;48.800;9.680;2023-10-19T13:31:29;15.10;99.90
15160;DHT22;7680;48.800;9.680;2023-10-19T13:36:34;15.00;99.90
15160;DHT22;7680;48.800;9.680;2023-10-19T13:41:39;14.90;99.90
15160;DHT22;7680;48.800;9.680;2023-10-19T13:46:42;15.00;99.90
15160;DHT22;7680;48.800;9.680;2023-10-19T13:51:46;15.10;99.90
15160;DHT22;7680;48.800;9.680;2023-10-19T13:56:50;15.20;99.90
15160;DHT22;7680;48.800;9.680;2023-10-19T14:01:53;15.20;99.90
15160;DHT22;7680;48.800;9.680;2023-10-19T14:06:56;15.20;99.90
15160;DHT22;7680;48.800;9.680;2023-10-19T14:12:03;15.20;99.90
15160;DHT22;7680;48.800;9.680;2023-10-19T14:17:09;15.10;99.90
15160;DHT22;7680;48.800;9.680;2023-10-19T14:22:12;15.10;99.90
15160;DHT22;7680;48.800;9.680;2023-10-19T14:27:19;15.10;99.90
15160;DHT22;7680;48.800;9.680;2023-10-19T14:32:22;15.10;99.90
15160;DHT22;7680;48.800;9.680;2023-10-19T14:37:25;15.20;99.90
15160;DHT22;7680;48.800;9.680;2023-10-19T14:42:30;15.20;99.90
15160;DHT22;7680;48.800;9.680;2023-10-19T14:47:35;15.30;99.90
15160;DHT22;7680;48.800;9.680;2023-10-19T14:52:42;15.20;99.90
15160;DHT22;7680;48.800;9.680;2023-10-19T14:57:48;15.20;99.90
15160;DHT22;7680;48.800;9.680;2023-10-19T15:02:55;15.20;99.90
15160;DHT22;7680;48.800;9.680;2023-10-19T15:08:03;15.20;99.90
15160;DHT22;7680;48.800;9.680;2023-10-19T15:13:10;15.20;99.90
15160;DHT22;7680;48.800;9.680;2023-10-19T15:18:13;15.10;99.90
15160;DHT22;7680;48.800;9.680;2023-10-19T15:23:16;15.10;99.90
15160;DHT22;7680;48.800;9.680;2023-10-19T15:28:21;15.10;99.90
15160;DHT22;7680;48.800;9.680;2023-10-19T15:33:25;15.10;99.90
15160;DHT22;7680;48.800;9.680;2023-10-19T15:38:28;15.10;99.90
15160;DHT22;7680;48.800;9.680;2023-10-19T15:43:33;15.10;99.90
15160;DHT22;7680;48.800;9.680;2023-10-19T15:48:36;15.20;99.90
15160;DHT22;7680;48.800;9.680;2023-10-19T15:53:39;15.20;99.90
15160;DHT22;7680;48.800;9.680;2023-10-19T15:58:44;15.20;99.90
15160;DHT22;7680;48.800;9.680;2023-10-19T16:03:47;15.10;99.90
15160;DHT22;7680;48.800;9.680;2023-10-19T16:08:51;15.20;99.90
15160;DHT22;7680;48.800;9.680;2023-10-19T16:13:55;15.10;99.90
15160;DHT22;7680;48.800;9.680;2023-10-19T16:18:58;15.00;99.90
15160;DHT22;7680;48.800;9.680;2023-10-19T16:24:01;14.90;99.90
15160;DHT22;7680;48.800;9.680;2023-10-19T16:29:07;14.80;99.90
15160;DHT22;7680;48.800;9.680;2023-10-19T16:34:17;14.80;99.90
15160;DHT22;7680;48.800;9.680;2023-10-19T16:39:20;14.70;99.90
15160;DHT22;7680;48.800;9.680;2023-10-19T16:44:24;14.80;99.90
15160;DHT22;7680;48.800;9.680;2023-10-19T16:49:27;14.70;99.90
15160;DHT22;7680;48.800;9.680;2023-10-19T16:54:33;14.60;99.90
15160;DHT22;7680;48.800;9.680;2023-10-19T16:59:37;14.60;99.90
15160;DHT22;7680;48.800;9.680;2023-10-19T17:04:41;14.50;99.90
15160;DHT22;7680;48.800;9.680;2023-10-19T17:09:44;14.40;99.90
15160;DHT22;7680;48.800;9.680;2023-10-19T17:14:49;14.30;99.90
15160;DHT22;7680;48.800;9.680;2023-10-19T17:19:52;14.30;99.90
15160;DHT22;7680;48.800;9.680;2023-10-19T17:24:56;14.30;99.90
15160;DHT22;7680;48.800;9.680;2023-10-19T17:30:00;14.30;99.90
15160;DHT22;7680;48.800;9.680;2023-10-19T17:35:04;14.20;99.90
15160;DHT22;7680;48.800;9.680;2023-10-19T17:40:08;14.20;99.90
15160;DHT22;7680;48.800;9.680;2023-10-19T17:45:14;14.10;99.90
15160;DHT22;7680;48.800;9.680;2023-10-19T17:50:17;14.20;99.90
15160;DHT22;7680;48.800;9.680;2023-10-19T17:55:21;14.10;99.90
15160;DHT22;7680;48.800;9.680;2023-10-19T18:00:26;14.10;99.90
15160;DHT22;7680;48.800;9.680;2023-10-19T18:05:29;14.10;99.90
15160;DHT22;7680;48.800;9.680;2023-10-19T18:10:33;14.00;99.90
15160;DHT22;7680;48.800;9.680;2023-10-19T18:15:39;14.00;99.90
15160;DHT22;7680;48.800;9.680;2023-10-19T18:20:42;14.00;99.90
15160;DHT22;7680;48.800;9.680;2023-10-19T18:25:46;13.90;99.90
15160;DHT22;7680;48.800;9.680;2023-10-19T18:30:58;13.90;99.90
15160;DHT22;7680;48.800;9.680;2023-10-19T18:36:03;13.80;99.90
15160;DHT22;7680;48.800;9.680;2023-10-19T18:41:07;13.70;99.90
15160;DHT22;7680;48.800;9.680;2023-10-19T18:46:11;13.70;99.90
15160;DHT22;7680;48.800;9.680;2023-10-19T18:51:15;13.60;99.90
15160;DHT22;7680;48.800;9.680;2023-10-19T18:56:18;13.60;99.90
15160;DHT22;7680;48.800;9.680;2023-10-19T19:01:22;13.50;99.90
15160;DHT22;7680;48.800;9.680;2023-10-19T19:06:25;13.50;99.90
15160;DHT22;7680;48.800;9.680;2023-10-19T19:11:28;13.50;99.90
15160;DHT22;7680;48.800;9.680;2023-10-19T19:16:33;13.40;99.90
15160;DHT22;7680;48.800;9.680;2023-10-19T19:21:36;13.40;99.90
15160;DHT22;7680;48.800;9.680;2023-10-19T19:26:42;13.40;99.90
15160;DHT22;7680;48.800;9.680;2023-10-19T19:31:47;13.50;99.90
15160;DHT22;7680;48.800;9.680;2023-10-19T19:36:52;13.50;99.90
15160;DHT22;7680;48.800;9.680;2023-10-19T19:41:55;13.50;99.90
15160;DHT22;7680;48.800;9.680;2023-10-19T19:47:00;13.40;99.90
15160;DHT22;7680;48.800;9.680;2023-10-19T19:52:03;13.50;99.90
15160;DHT22;7680;48.800;9.680;2023-10-19T19:57:06;13.40;99.90
15160;DHT22;7680;48.800;9.680;2023-10-19T20:02:11;13.30;99.90
15160;DHT22;7680;48.800;9.680;2023-10-19T20:07:14;13.30;99.90
15160;DHT22;7680;48.800;9.680;2023-10-19T20:12:17;13.30;99.90
15160;DHT22;7680;48.800;9.680;2023-10-19T20:17:22;13.20;99.90
15160;DHT22;7680;48.800;9.680;2023-10-19T20:22:25;13.10;99.90
15160;DHT22;7680;48.800;9.680;2023-10-19T20:27:29;13.10;99.90
15160;DHT22;7680;48.800;9.680;2023-10-19T20:32:33;13.10;99.90
15160;DHT22;7680;48.800;9.680;2023-10-19T20:37:37;13.10;99.90
15160;DHT22;7680;48.800;9.680;2023-10-19T20:42:41;13.10;99.90
15160;DHT22;7680;48.800;9.680;2023-10-19T20:47:48;13.10;99.90
15160;DHT22;7680;48.800;9.680;2023-10-19T20:52:52;13.10;99.90
15160;DHT22;7680;48.800;9.680;2023-10-19T20:57:56;13.10;99.90
15160;DHT22;7680;48.800;9.680;2023-10-19T21:03:00;13.10;99.90
15160;DHT22;7680;48.800;9.680;2023-10-19T21:08:04;13.10;99.90
15160;DHT22;7680;48.800;9.680;2023-10-19T21:13:07;13.10;99.90
15160;DHT22;7680;48.800;9.680;2023-10-19T21:18:12;13.00;99.90
15160;DHT22;7680;48.800;9.680;2023-10-19T21:23:15;13.00;99.90
15160;DHT22;7680;48.800;9.680;2023-10-19T21:28:18;13.10;99.90
15160;DHT22;7680;48.800;9.680;2023-10-19T21:33:22;13.00;99.90
15160;DHT22;7680;48.800;9.680;2023-10-19T21:38:26;12.90;99.90
15160;DHT22;7680;48.800;9.680;2023-10-19T21:43:29;12.90;99.90
15160;DHT22;7680;48.800;9.680;2023-10-19T21:48:34;13.00;99.90
15160;DHT22;7680;48.800;9.680;2023-10-19T21:53:37;13.00;99.90
15160;DHT22;7680;48.800;9.680;2023-10-19T21:58:43;12.90;99.90
15160;DHT22;7680;48.800;9.680;2023-10-19T22:03:47;12.90;99.90
15160;DHT22;7680;48.800;9.680;2023-10-19T22:08:54;12.90;99.90
15160;DHT22;7680;48.800;9.680;2023-10-19T22:13:57;12.80;99.90
15160;DHT22;7680;48.800;9.680;2023-10-19T22:19:02;12.90;99.90
15160;DHT22;7680;48.800;9.680;2023-10-19T22:24:06;12.80;99.90
15160;DHT22;7680;48.800;9.680;2023-10-19T22:29:10;12.80;99.90
15160;DHT22;7680;48.800;9.680;2023-10-19T22:34:14;12.80;99.90
15160;DHT22;7680;48.800;9.680;2023-10-19T22:39:17;12.80;99.90
15160;DHT22;7680;48.800;9.680;2023-10-19T22:44:21;12.80;99.90
15160;DHT22;7680;48.800;9.680;2023-10-19T22:49:26;12.80;99.90
15160;DHT22;7680;48.800;9.680;2023-10-19T22:54:29;12.70;99.90
15160;DHT22;7680;48.800;9.680;2023-10-19T22:59:32;12.60;99.90
15160;DHT22;7680;48.800;9.680;2023-10-19T23:04:37;12.60;99.90
15160;DHT22;7680;48.800;9.680;2023-10-19T23:09:41;12.70;99.90
15160;DHT22;7680;48.800;9.680;2023-10-19T23:14:45;12.70;99.90
15160;DHT22;7680;48.800;9.680;2023-10-19T23:19:50;12.70;99.90
15160;DHT22;7680;48.800;9.680;2023-10-19T23:24:55;12.80;99.90
15160;DHT22;7680;48.800;9.680;2023-10-19T23:29:59;12.70;99.90
15160;DHT22;7680;48.800;9.680;2023-10-19T23:35:04;12.80;99.90
15160;DHT22;7680;48.800;9.680;2023-10-19T23:40:09;12.70;99.90
15160;DHT22;7680;48.800;9.680;2023-10-19T23:45:14;12.70;99.90
15160;DHT22;7680;48.800;9.680;2023-10-19T23:50:18;12.70;99.90
15160;DHT22;7680;48.800;9.680;2023-10-19T23:55:22;12.80;99.90
